Ana Sayfa
METAR-TAF:

METAR-TAF

Havaalanları :

Sakız Adası, Yunanistan

Enlem: 38-20N, Boylam: 026-08E, yükseklik: 5 m

Güncel hava durumu gözlemi

Rapor saat 16:50 UTC de 1 saat ve 6 dakika önce yapıldı.
Rüzgar kuzeydan 12 kt
Sıcaklık 32°C
Nem 32%
Basınç 1007 hPa
Görüş mesafesi 10 km veya daha fazla
1500 m altında bulut yok ve kümülonimbus yok

METAR: LGHI 181650Z 36012KT CAVOK 32/13 Q1007

Saat: 20:56 (17:56 UTC)

Tahmin

Rapor saat 17:00 UTC de 56 dakika önce yapıldı.
Ayın 18'si saat 18 UTC'den ayın 19'si saat 03 UTC'ye kadar geçerli Tahmin
Rüzgar kuzeydan 15 kt
Görüş mesafesi 10 km veya daha fazla
2500 ft yükseklikte az bulutlu
Geçici
ayın 18'si saat 18 UTC'den ayın 18'si saat 21 UTC'ye kadar
Rüzgar kuzeydan 15 kt ve 25 kt'a kadar ani rüzgarlar

TAF: LGHI 181700Z 1818/1903 36015KT 9999 FEW025 TEMPO 1818/1821 36015G25KT

4.000'den fazla havaalanı için hava durumu gözlemleri ve tahminleri (METAR ve TAF raporları).

Kullanılabilir istasyonlar harita üzerinde sarı ve kırmızı noktalarla gösterilir.

İstasyonun adını görmek için fareyi noktanın üzerinde gezdirin.

Sonrasında hava gözlem ve tahminlerini görmek için tıklayın.

Haritayı değiştirmek için: yaklaştırmak için siyah artı işaretli yeşil düğmeye ve uzaklaştırmak için de eksi işaretli düğmeye hızla tıklayın; bitişik haritalar için yeşil okları kullanın.


METAR-TAF: